Time;durP1;ratioP1;P1;durP2;ratioP2;P2;SDS_P1;SDS_P2;PMS_P1;PMS_P2;Temp;Humidity;BMP_temperature;BMP_pressure;BME280_temperature;BME280_humidity;BME280_pressure;Samples;Min_cycle;Max_cycle;Signal;HPM_P1;HPM_P2
2021/09/12 00:00:52;;;;;;;11.30;9.15;;;;;;;15.34;94.42;99632.19;5074749;28;20189;-73
2021/09/12 00:03:19;;;;;;;11.70;10.02;;;;;;;15.43;93.71;99627.91;5074453;28;20208;-73
2021/09/12 00:05:45;;;;;;;12.27;9.40;;;;;;;15.39;93.59;99623.69;5074468;28;20196;-73
2021/09/12 00:08:12;;;;;;;12.32;8.20;;;;;;;15.25;94.61;99629.34;5074405;28;20243;-73
2021/09/12 00:10:40;;;;;;;9.07;7.90;;;;;;;15.16;95.07;99626.34;5074765;28;20276;-73
2021/09/12 00:13:07;;;;;;;10.45;7.72;;;;;;;15.19;94.72;99625.22;5074294;28;20193;-73
2021/09/12 00:15:33;;;;;;;8.25;6.90;;;;;;;15.09;95.21;99619.66;5066683;28;20220;-73
2021/09/12 00:18:01;;;;;;;7.47;6.70;;;;;;;15.02;95.87;99615.69;5074604;28;20193;-73
2021/09/12 00:20:28;;;;;;;10.88;6.93;;;;;;;14.98;95.77;99617.75;5074077;28;20289;-73
2021/09/12 00:22:55;;;;;;;10.43;9.35;;;;;;;15.00;96.31;99617.66;5074530;28;20196;-73
2021/09/12 00:25:21;;;;;;;11.45;8.60;;;;;;;15.00;96.00;99617.66;5073745;28;20319;-73
2021/09/12 00:27:48;;;;;;;11.70;8.80;;;;;;;15.03;95.94;99620.13;5074387;28;20212;-74
2021/09/12 00:30:15;;;;;;;10.63;7.70;;;;;;;15.04;95.21;99623.69;5073855;28;20627;-73
2021/09/12 00:32:42;;;;;;;10.70;8.32;;;;;;;14.89;96.91;99618.47;5074224;28;20200;-73
2021/09/12 00:35:11;;;;;;;9.85;8.85;;;;;;;14.95;96.94;99615.28;5074077;28;20210;-73
2021/09/12 00:37:38;;;;;;;9.88;7.80;;;;;;;14.76;97.65;99623.94;5073720;28;20276;-74
2021/09/12 00:40:07;;;;;;;9.02;7.88;;;;;;;14.75;97.54;99618.66;5074337;28;20558;-74
2021/09/12 00:42:34;;;;;;;11.35;8.15;;;;;;;14.73;98.69;99624.19;5074319;28;20199;-74
2021/09/12 00:45:00;;;;;;;10.50;9.00;;;;;;;14.85;97.52;99616.97;5073822;28;20195;-74
2021/09/12 00:47:27;;;;;;;9.43;8.43;;;;;;;14.92;97.10;99622.78;5073395;28;20220;-75
2021/09/12 00:49:54;;;;;;;11.60;7.80;;;;;;;14.86;97.06;99615.13;5073961;28;20188;-74
2021/09/12 00:52:24;;;;;;;9.98;8.13;;;;;;;14.89;96.59;99614.91;5074031;28;20242;-74
2021/09/12 00:54:51;;;;;;;10.40;7.50;;;;;;;14.86;96.13;99621.41;5074034;28;20189;-74
2021/09/12 00:57:19;;;;;;;9.52;8.02;;;;;;;14.85;96.03;99616.97;5073623;28;20239;-74
2021/09/12 00:59:48;;;;;;;11.27;8.07;;;;;;;14.73;97.07;99613.34;5065703;28;20185;-74
2021/09/12 01:02:18;;;;;;;8.82;7.65;;;;;;;14.65;97.62;99618.44;5074002;28;20199;-74
2021/09/12 01:04:45;;;;;;;11.00;8.20;;;;;;;14.70;97.54;99618.13;5074026;28;20185;-74
2021/09/12 01:07:12;;;;;;;11.32;7.75;;;;;;;14.64;98.12;99624.88;5073673;28;20196;-74
2021/09/12 01:09:41;;;;;;;9.10;7.25;;;;;;;14.75;97.26;99611.38;5073302;28;20653;-74
2021/09/12 01:12:09;;;;;;;10.63;7.88;;;;;;;14.77;96.22;99609.41;5073762;28;20223;-74
2021/09/12 01:14:37;;;;;;;8.30;7.43;;;;;;;14.84;95.66;99617.97;5073266;28;20210;-74
2021/09/12 01:17:05;;;;;;;8.43;6.82;;;;;;;14.87;95.42;99617.72;5073466;28;20195;-74
2021/09/12 01:19:32;;;;;;;8.88;6.93;;;;;;;14.91;94.36;99612.94;5073460;28;20189;-74
2021/09/12 01:22:00;;;;;;;8.25;6.53;;;;;;;14.69;96.20;99619.09;5073706;28;20203;-74
2021/09/12 01:24:29;;;;;;;7.97;7.00;;;;;;;14.71;96.34;99619.84;5073447;28;20700;-74
2021/09/12 01:26:56;;;;;;;9.68;7.70;;;;;;;14.83;96.50;99618.06;5073022;28;20315;-74
2021/09/12 01:29:23;;;;;;;12.75;9.00;;;;;;;14.89;95.73;99617.59;5073070;28;20221;-74
2021/09/12 01:31:49;;;;;;;7.82;7.03;;;;;;;14.60;95.72;99624.22;5073249;28;20197;-74
2021/09/12 01:34:16;;;;;;;11.55;7.45;;;;;;;14.43;97.78;99610.19;5073456;28;20192;-74
2021/09/12 01:36:44;;;;;;;9.98;7.05;;;;;;;14.12;99.85;99612.41;5073186;28;20642;-73
2021/09/12 01:39:11;;;;;;;9.25;7.05;;;;;;;14.11;100.00;99606.16;5073085;28;20271;-73
2021/09/12 01:41:39;;;;;;;7.95;6.90;;;;;;;14.20;100.00;99604.63;5073156;28;20192;-74
2021/09/12 01:44:07;;;;;;;9.20;7.88;;;;;;;14.24;99.83;99600.69;5073197;28;20185;-74
2021/09/12 01:46:34;;;;;;;8.38;6.70;;;;;;;14.11;100.00;99607.97;5073154;28;20593;-73
2021/09/12 01:49:04;;;;;;;9.52;6.88;;;;;;;14.00;100.00;99602.47;5072818;28;20225;-73
2021/09/12 01:51:31;;;;;;;7.15;6.47;;;;;;;13.83;100.00;99609.97;5073374;28;20203;-73
2021/09/12 01:53:58;;;;;;;8.65;7.30;;;;;;;13.76;100.00;99605.97;5073021;28;20282;-73
2021/09/12 01:56:25;;;;;;;8.98;6.90;;;;;;;13.61;100.00;99602.50;5073231;28;20219;-73
2021/09/12 01:58:53;;;;;;;7.47;6.50;;;;;;;13.76;100.00;99601.41;5073649;28;20187;-73
2021/09/12 02:01:20;;;;;;;7.13;6.35;;;;;;;13.79;100.00;99604.88;5076755;28;20190;-73
2021/09/12 02:03:46;;;;;;;8.23;6.65;;;;;;;13.93;100.00;99599.38;5077017;28;20192;-73
2021/09/12 02:06:13;;;;;;;11.55;7.20;;;;;;;13.94;100.00;99604.66;5077052;28;20187;-73
2021/09/12 02:08:40;;;;;;;6.80;6.10;;;;;;;13.85;100.00;99607.16;5076846;28;20223;-73
2021/09/12 02:11:07;;;;;;;6.72;6.07;;;;;;;13.68;100.00;99605.63;5069067;28;20502;-73
2021/09/12 02:13:33;;;;;;;8.10;6.82;;;;;;;13.58;100.00;99608.13;5076856;28;20611;-73
2021/09/12 02:16:01;;;;;;;7.65;6.13;;;;;;;13.63;100.00;99603.25;5076408;28;20194;-74
2021/09/12 02:18:28;;;;;;;7.55;6.43;;;;;;;13.61;100.00;99607.03;5076976;28;20184;-74
2021/09/12 02:20:55;;;;;;;8.05;6.50;;;;;;;13.68;100.00;99598.41;5076583;28;20622;-74
2021/09/12 02:23:21;;;;;;;7.65;6.75;;;;;;;13.55;100.00;99603.81;5076717;28;20657;-74
2021/09/12 02:25:48;;;;;;;9.07;6.80;;;;;;;13.43;100.00;99590.28;5076467;28;20258;-74
2021/09/12 02:28:15;;;;;;;8.05;7.28;;;;;;;13.46;100.00;99592.78;5076715;28;20242;-74
2021/09/12 02:30:42;;;;;;;8.30;6.40;;;;;;;13.34;100.00;99589.06;5076519;28;20187;-74
2021/09/12 02:33:10;;;;;;;8.13;7.32;;;;;;;13.35;100.00;99596.22;5076329;28;20206;-74
2021/09/12 02:35:37;;;;;;;10.13;7.70;;;;;;;13.46;100.00;99590.94;5076551;28;20544;-74
2021/09/12 02:38:04;;;;;;;7.97;6.35;;;;;;;13.55;100.00;99600.25;5076170;28;20186;-74
2021/09/12 02:40:30;;;;;;;7.28;6.47;;;;;;;13.54;100.00;99599.38;5076116;28;20198;-74
2021/09/12 02:42:57;;;;;;;8.30;6.25;;;;;;;13.49;100.00;99601.53;5076415;28;20219;-74
2021/09/12 02:45:24;;;;;;;8.10;7.30;;;;;;;13.49;100.00;99598.81;5076063;28;20639;-73
2021/09/12 02:47:50;;;;;;;7.53;6.50;;;;;;;13.38;100.00;99589.72;5075685;28;20289;-74
2021/09/12 02:50:18;;;;;;;7.45;6.75;;;;;;;13.32;100.00;99591.91;5075998;28;20202;-74
2021/09/12 02:52:45;;;;;;;10.35;7.40;;;;;;;13.26;100.00;99586.88;5067682;28;20233;-74
2021/09/12 02:55:12;;;;;;;6.68;5.97;;;;;;;13.24;100.00;99590.66;5076478;28;20189;-74
2021/09/12 02:57:39;;;;;;;7.38;6.68;;;;;;;13.20;100.00;99592.69;5075552;28;20209;-74
2021/09/12 03:00:07;;;;;;;7.57;5.68;;;;;;;13.22;100.00;99596.16;5076139;28;20667;-74
2021/09/12 03:02:33;;;;;;;7.70;6.15;;;;;;;13.11;100.00;99596.94;5075822;28;20269;-74
2021/09/12 03:05:00;;;;;;;7.90;7.10;;;;;;;13.21;100.00;99593.59;5068654;28;20597;-74
2021/09/12 03:07:28;;;;;;;8.95;6.95;;;;;;;13.21;100.00;99591.75;5075919;28;20622;-74
2021/09/12 03:09:55;;;;;;;7.43;6.63;;;;;;;13.20;100.00;99598.09;5075164;28;20379;-74
2021/09/12 03:12:21;;;;;;;7.97;7.00;;;;;;;13.15;100.00;99592.16;5075387;28;20192;-74
2021/09/12 03:14:48;;;;;;;8.40;6.93;;;;;;;13.18;100.00;99596.50;5075582;28;20195;-74
2021/09/12 03:17:14;;;;;;;9.70;7.40;;;;;;;13.25;100.00;99592.38;5075786;28;20227;-74
2021/09/12 03:19:41;;;;;;;8.00;7.20;;;;;;;13.24;100.00;99593.38;5075322;28;20188;-74
2021/09/12 03:22:08;;;;;;;7.15;6.45;;;;;;;13.41;100.00;99592.22;5075010;28;20281;-74
2021/09/12 03:24:36;;;;;;;8.68;6.68;;;;;;;13.36;100.00;99589.84;5075254;28;20207;-74
2021/09/12 03:27:03;;;;;;;6.97;6.28;;;;;;;13.51;100.00;99587.91;5074961;28;20233;-74
2021/09/12 03:29:29;;;;;;;8.57;7.43;;;;;;;13.51;100.00;99577.94;5075466;28;20628;-74
2021/09/12 03:31:56;;;;;;;7.25;6.55;;;;;;;13.29;100.00;99583.97;5075309;28;20196;-74
2021/09/12 03:34:24;;;;;;;8.38;6.60;;;;;;;13.24;100.00;99582.56;5075176;28;20289;-74
2021/09/12 03:36:50;;;;;;;7.18;6.47;;;;;;;13.05;100.00;99585.69;5075179;28;20214;-74
2021/09/12 03:39:17;;;;;;;7.45;6.18;;;;;;;12.98;100.00;99579.81;5075230;28;20278;-74
2021/09/12 03:41:45;;;;;;;9.25;7.03;;;;;;;13.11;100.00;99577.13;5075432;28;20566;-74
2021/09/12 03:44:12;;;;;;;7.15;6.50;;;;;;;13.12;100.00;99574.31;5075245;28;20197;-74
2021/09/12 03:46:39;;;;;;;7.65;6.90;;;;;;;12.90;100.00;99574.91;5075286;28;20232;-74
2021/09/12 03:49:06;;;;;;;7.47;6.65;;;;;;;12.85;100.00;99573.50;5075437;28;20215;-74
2021/09/12 03:51:32;;;;;;;9.57;7.35;;;;;;;12.91;100.00;99578.47;5075365;28;20674;-73
2021/09/12 03:53:59;;;;;;;9.25;7.25;;;;;;;13.00;100.00;99585.09;5075062;28;20200;-73
2021/09/12 03:56:25;;;;;;;7.30;6.60;;;;;;;12.89;100.00;99578.59;5074939;28;20539;-73
2021/09/12 03:58:53;;;;;;;7.78;6.97;;;;;;;12.85;100.00;99578.91;5074442;28;20280;-73
2021/09/12 04:01:20;;;;;;;8.30;6.50;;;;;;;12.73;100.00;99573.38;5074675;28;20196;-73
2021/09/12 04:03:47;;;;;;;7.55;6.75;;;;;;;12.68;100.00;99575.50;5074753;28;20554;-74
2021/09/12 04:06:13;;;;;;;10.00;7.55;;;;;;;12.77;100.00;99586.66;5074805;28;20193;-74
2021/09/12 04:08:40;;;;;;;10.93;7.55;;;;;;;12.79;100.00;99587.44;5074183;28;20222;-74
2021/09/12 04:11:07;;;;;;;7.57;6.88;;;;;;;13.00;100.00;99580.59;5074440;28;20200;-74
2021/09/12 04:13:33;;;;;;;8.05;7.18;;;;;;;12.97;100.00;99582.63;5074417;28;20185;-74
2021/09/12 04:16:01;;;;;;;12.68;7.10;;;;;;;13.10;100.00;99581.66;5074458;28;20645;-74
2021/09/12 04:18:28;;;;;;;8.45;6.97;;;;;;;13.13;100.00;99577.88;5074632;28;20184;-73
2021/09/12 04:20:54;;;;;;;8.20;7.38;;;;;;;13.00;100.00;99580.59;5074433;28;20525;-73
2021/09/12 04:23:21;;;;;;;10.93;7.65;;;;;;;12.81;100.00;99583.66;5074501;28;20281;-74
2021/09/12 04:25:47;;;;;;;7.10;6.40;;;;;;;12.91;100.00;99584.78;5074423;28;20265;-74
2021/09/12 04:28:14;;;;;;;8.32;7.53;;;;;;;12.92;100.00;99585.63;5074371;28;20195;-74
2021/09/12 04:30:42;;;;;;;7.38;6.68;;;;;;;12.92;100.00;99581.09;5073907;28;20300;-74
2021/09/12 04:33:10;;;;;;;8.18;7.35;;;;;;;12.79;100.00;99587.44;5073809;28;20202;-74
2021/09/12 04:35:37;;;;;;;7.50;6.65;;;;;;;12.62;100.00;99584.03;5073908;28;20275;-74
2021/09/12 04:38:04;;;;;;;7.70;7.00;;;;;;;12.53;100.00;99581.94;5074056;28;20279;-74
2021/09/12 04:40:30;;;;;;;7.68;6.88;;;;;;;12.55;100.00;99579.13;5073845;28;20198;-74
2021/09/12 04:42:57;;;;;;;8.63;7.00;;;;;;;12.54;100.00;99586.38;5074135;28;20616;-74
2021/09/12 04:45:24;;;;;;;8.80;7.40;;;;;;;12.49;100.00;99583.13;5073904;28;20216;-74
2021/09/12 04:47:50;;;;;;;61.92;39.00;;;;;;;12.72;100.00;99574.31;5074152;28;20278;-74
2021/09/12 04:50:18;;;;;;;59.42;37.15;;;;;;;13.08;100.00;99574.63;5073797;28;20237;-74
2021/09/12 04:52:47;;;;;;;36.53;23.80;;;;;;;13.18;100.00;99574.84;5066154;28;20196;-73
2021/09/12 04:55:14;;;;;;;32.95;21.30;;;;;;;13.10;100.00;99578.97;5073777;28;20222;-73
2021/09/12 04:57:40;;;;;;;28.75;21.17;;;;;;;12.99;100.00;99591.50;5073611;28;20656;-73
2021/09/12 05:00:08;;;;;;;57.85;38.53;;;;;;;13.22;100.00;99582.66;5073738;28;20186;-73
2021/09/12 05:02:35;;;;;;;52.65;32.90;;;;;;;13.41;100.00;99590.41;5073718;28;20275;-74
2021/09/12 05:05:01;;;;;;;16.50;11.85;;;;;;;13.48;98.54;99582.72;5073326;28;20191;-75
2021/09/12 05:07:29;;;;;;;17.85;12.10;;;;;;;13.69;97.21;99583.88;5073549;28;20277;-73
2021/09/12 05:09:56;;;;;;;16.58;12.52;;;;;;;13.55;96.24;99586.72;5065370;28;20207;-73
2021/09/12 05:12:23;;;;;;;18.98;12.63;;;;;;;13.58;96.80;99591.91;5073760;28;20285;-73
2021/09/12 05:14:50;;;;;;;61.58;35.28;;;;;;;13.68;95.99;99592.09;5071826;28;20689;-73
2021/09/12 05:17:16;;;;;;;37.25;24.00;;;;;;;13.69;93.93;99588.44;5073783;28;20198;-73
2021/09/12 05:19:43;;;;;;;55.25;30.35;;;;;;;13.69;95.40;99589.31;5073261;28;20652;-74
2021/09/12 05:22:09;;;;;;;41.63;24.15;;;;;;;13.50;95.68;99588.84;5073599;28;20217;-73
2021/09/12 05:24:37;;;;;;;45.28;27.50;;;;;;;13.56;95.89;99585.72;5073124;28;20187;-73
2021/09/12 05:27:05;;;;;;;58.67;33.53;;;;;;;13.37;97.29;99591.59;5072703;28;20255;-73
2021/09/12 05:29:31;;;;;;;104.47;60.38;;;;;;;13.41;98.36;99589.50;5072641;28;20335;-73
2021/09/12 05:31:58;;;;;;;31.27;19.13;;;;;;;13.69;95.07;99593.84;5073124;28;20229;-73
2021/09/12 05:34:25;;;;;;;41.08;25.15;;;;;;;13.71;94.08;99592.78;5072981;28;20277;-73
2021/09/12 05:36:51;;;;;;;42.65;27.73;;;;;;;13.80;94.47;99598.50;5073548;28;20198;-73
2021/09/12 05:39:18;;;;;;;115.30;72.78;;;;;;;13.70;95.76;99600.97;5073660;28;20262;-73
2021/09/12 05:41:46;;;;;;;83.43;48.85;;;;;;;14.08;93.88;99595.53;5073216;28;20237;-73
2021/09/12 05:44:13;;;;;;;105.43;63.38;;;;;;;13.86;93.62;99593.53;5073462;28;20294;-73
2021/09/12 05:46:39;;;;;;;67.13;42.78;;;;;;;14.06;93.28;99596.63;5073692;28;20234;-73
2021/09/12 05:49:06;;;;;;;34.58;23.25;;;;;;;14.10;92.76;99598.13;5073158;28;20307;-73
2021/09/12 05:51:33;;;;;;;26.90;19.90;;;;;;;14.02;93.65;99604.13;5073602;28;20619;-74
2021/09/12 05:54:00;;;;;;;31.88;21.33;;;;;;;14.25;92.83;99604.28;5073188;28;20192;-73
2021/09/12 05:56:26;;;;;;;23.95;17.50;;;;;;;14.46;91.25;99612.66;5073917;28;20240;-73
2021/09/12 05:58:54;;;;;;;21.95;15.23;;;;;;;14.46;90.65;99615.38;5073292;28;20605;-73
2021/09/12 06:01:21;;;;;;;36.35;23.92;;;;;;;14.56;91.00;99616.44;5072999;28;20608;-73
2021/09/12 06:03:48;;;;;;;18.92;13.55;;;;;;;14.83;88.75;99618.91;5072866;28;20550;-73
2021/09/12 06:06:15;;;;;;;17.88;13.00;;;;;;;14.97;87.77;99615.19;5072803;28;20562;-72
2021/09/12 06:08:41;;;;;;;13.48;10.15;;;;;;;14.90;87.39;99622.03;5072979;28;20521;-74
2021/09/12 06:11:10;;;;;;;14.07;10.32;;;;;;;14.74;87.68;99616.91;5073106;28;20646;-74
2021/09/12 06:13:36;;;;;;;143.25;82.72;;;;;;;14.89;89.23;99620.31;5072770;28;20275;-74
2021/09/12 06:16:06;;;;;;;55.25;34.85;;;;;;;14.99;87.37;99614.09;5073651;28;20674;-74
2021/09/12 06:18:33;;;;;;;63.95;40.25;;;;;;;15.31;87.20;99613.47;5073014;28;20610;-74
2021/09/12 06:21:00;;;;;;;36.25;23.77;;;;;;;15.52;84.91;99610.06;5072783;28;20294;-74
2021/09/12 06:23:27;;;;;;;20.00;12.13;;;;;;;15.56;83.49;99616.97;5073253;28;20200;-74
2021/09/12 06:25:53;;;;;;;31.42;21.00;;;;;;;15.13;86.18;99610.31;5072895;28;20235;-74
2021/09/12 06:28:20;;;;;;;18.95;11.98;;;;;;;15.15;86.11;99618.31;5073174;28;20193;-74
2021/09/12 06:30:47;;;;;;;20.70;15.05;;;;;;;15.38;86.13;99611.13;5072768;28;20220;-74
2021/09/12 06:33:15;;;;;;;10.18;8.57;;;;;;;15.37;84.53;99612.09;5073114;28;20185;-74
2021/09/12 06:35:42;;;;;;;11.82;8.98;;;;;;;15.50;84.84;99615.59;5072818;28;20197;-74
2021/09/12 06:38:08;;;;;;;8.40;7.20;;;;;;;15.49;84.94;99615.69;5072961;28;20634;-73
2021/09/12 06:40:35;;;;;;;14.73;9.95;;;;;;;15.69;84.38;99614.13;5072535;28;20262;-74
2021/09/12 06:43:03;;;;;;;12.52;9.30;;;;;;;15.66;84.37;99626.09;5073093;28;20216;-74
2021/09/12 06:45:31;;;;;;;9.60;7.88;;;;;;;15.63;84.14;99621.78;5072948;28;20193;-74
2021/09/12 06:47:58;;;;;;;10.82;9.13;;;;;;;15.87;83.97;99626.28;5076655;28;20209;-74
2021/09/12 06:50:26;;;;;;;9.20;7.88;;;;;;;15.60;84.21;99616.59;5076362;28;20557;-73
2021/09/12 06:52:53;;;;;;;9.43;8.10;;;;;;;15.47;85.74;99621.25;5076481;28;20528;-73
2021/09/12 06:55:20;;;;;;;8.88;7.80;;;;;;;15.87;84.23;99623.56;5076290;28;20637;-73
2021/09/12 06:57:46;;;;;;;13.38;8.50;;;;;;;16.29;82.10;99625.66;5076300;28;20222;-73
2021/09/12 07:00:14;;;;;;;15.35;10.88;;;;;;;16.15;81.36;99624.09;5076288;28;20181;-73
2021/09/12 07:02:40;;;;;;;22.08;17.00;;;;;;;16.53;80.36;99614.63;5076131;28;20605;-73
2021/09/12 07:05:09;;;;;;;15.73;12.27;;;;;;;16.24;80.41;99618.75;5076081;28;20645;-73
2021/09/12 07:07:37;;;;;;;11.68;7.53;;;;;;;16.11;81.46;99622.59;5076107;28;20239;-73
2021/09/12 07:10:05;;;;;;;9.18;7.53;;;;;;;16.04;82.18;99624.94;5075620;28;20235;-72
2021/09/12 07:12:31;;;;;;;8.93;6.88;;;;;;;16.30;81.07;99622.81;5075920;28;20225;-72
2021/09/12 07:14:58;;;;;;;8.25;7.45;;;;;;;16.32;81.54;99628.13;5075830;28;20232;-72
2021/09/12 07:17:24;;;;;;;7.68;6.97;;;;;;;16.42;80.68;99632.69;5075887;28;20189;-73
2021/09/12 07:19:51;;;;;;;8.90;7.85;;;;;;;16.31;81.52;99635.41;5075923;28;20189;-73
2021/09/12 07:22:18;;;;;;;8.65;7.75;;;;;;;16.50;80.18;99639.34;5075482;28;20205;-73
2021/09/12 07:24:46;;;;;;;9.32;8.25;;;;;;;16.52;80.53;99634.66;5075934;28;20196;-74
2021/09/12 07:27:12;;;;;;;12.73;10.88;;;;;;;16.90;79.57;99634.22;5075464;28;20723;-74
2021/09/12 07:29:39;;;;;;;12.98;8.80;;;;;;;17.02;78.15;99629.59;5075651;28;20226;-74
2021/09/12 07:32:06;;;;;;;9.07;8.18;;;;;;;17.01;77.76;99630.59;5075418;28;20183;-74
2021/09/12 07:34:33;;;;;;;28.20;22.73;;;;;;;17.03;78.82;99632.19;5075529;28;20643;-73
2021/09/12 07:36:59;;;;;;;14.32;12.15;;;;;;;17.05;78.23;99629.34;5075700;28;20185;-73
2021/09/12 07:39:26;;;;;;;58.53;37.67;;;;;;;16.86;80.33;99619.16;5075608;28;20707;-73
2021/09/12 07:41:54;;;;;;;34.47;24.20;;;;;;;16.97;79.27;99621.81;5075481;28;20277;-74
2021/09/12 07:44:20;;;;;;;11.32;9.88;;;;;;;17.38;77.66;99630.19;5075489;28;20373;-73
2021/09/12 07:46:47;;;;;;;24.95;18.17;;;;;;;17.78;76.36;99624.84;5075147;28;20279;-74
2021/09/12 07:49:14;;;;;;;11.18;9.25;;;;;;;17.91;74.87;99625.53;5073944;28;20202;-74
2021/09/12 07:51:40;;;;;;;11.57;9.65;;;;;;;17.97;74.50;99626.84;5075022;28;20294;-73
2021/09/12 07:54:07;;;;;;;16.75;11.50;;;;;;;17.87;74.90;99625.94;5075210;28;20532;-74
2021/09/12 07:56:33;;;;;;;7.93;7.07;;;;;;;18.06;74.07;99622.44;5074678;28;20184;-74
2021/09/12 07:59:02;;;;;;;8.35;7.03;;;;;;;18.23;73.37;99626.41;5074871;28;20191;-73
2021/09/12 08:01:28;;;;;;;8.10;7.30;;;;;;;18.29;72.79;99624.00;5074774;28;20281;-73
2021/09/12 08:03:55;;;;;;;12.07;8.50;;;;;;;18.44;72.65;99624.44;5075039;28;20533;-74
2021/09/12 08:06:22;;;;;;;12.05;9.60;;;;;;;18.36;72.50;99629.75;5074661;28;20280;-73
2021/09/12 08:08:49;;;;;;;10.02;8.80;;;;;;;18.66;71.97;99633.41;5074925;28;20192;-74
2021/09/12 08:11:15;;;;;;;7.25;6.55;;;;;;;18.86;71.24;99634.31;5075000;28;20313;-73
2021/09/12 08:13:42;;;;;;;9.90;6.90;;;;;;;18.95;70.19;99630.78;5074477;28;20350;-74
2021/09/12 08:16:10;;;;;;;7.68;6.80;;;;;;;19.28;69.07;99634.06;5074747;28;20518;-74
2021/09/12 08:18:37;;;;;;;7.75;6.80;;;;;;;19.55;68.02;99639.66;5074806;28;20208;-74
2021/09/12 08:21:04;;;;;;;8.95;6.90;;;;;;;19.41;68.95;99639.25;5074432;28;20232;-74
2021/09/12 08:23:31;;;;;;;8.10;7.30;;;;;;;19.15;70.03;99637.09;5074212;28;20275;-74
2021/09/12 08:25:57;;;;;;;7.50;6.80;;;;;;;19.28;70.00;99634.94;5073685;28;20271;-74
2021/09/12 08:28:24;;;;;;;8.30;7.43;;;;;;;19.40;69.67;99641.09;5073882;28;20203;-73
2021/09/12 08:30:51;;;;;;;7.93;7.13;;;;;;;19.29;70.25;99647.59;5073722;28;20216;-73
2021/09/12 08:33:19;;;;;;;7.35;6.50;;;;;;;19.13;71.48;99652.72;5073906;28;20538;-74
2021/09/12 08:35:46;;;;;;;7.07;6.25;;;;;;;19.01;71.08;99642.97;5073794;28;20230;-74
2021/09/12 08:38:13;;;;;;;7.82;6.22;;;;;;;19.50;69.47;99643.84;5073455;28;20545;-73
2021/09/12 08:40:40;;;;;;;7.88;6.47;;;;;;;19.60;68.08;99644.66;5073312;28;20279;-73
2021/09/12 08:43:07;;;;;;;9.33;7.47;;;;;;;19.75;67.18;99643.25;5073491;28;20287;-73
2021/09/12 08:45:34;;;;;;;7.00;6.30;;;;;;;19.90;66.60;99643.66;5073049;28;20538;-73
2021/09/12 08:48:02;;;;;;;7.80;6.60;;;;;;;20.00;65.92;99639.00;5073953;28;20299;-73
2021/09/12 08:50:30;;;;;;;9.40;6.40;;;;;;;20.18;65.01;99644.56;5073568;28;20473;-74
2021/09/12 08:52:56;;;;;;;7.17;6.47;;;;;;;20.01;64.40;99642.59;5073704;28;20497;-73
2021/09/12 08:55:23;;;;;;;7.87;6.27;;;;;;;20.19;64.04;99639.94;5073796;28;20804;-74
2021/09/12 08:57:51;;;;;;;6.83;5.53;;;;;;;20.43;63.38;99642.16;5073724;28;20900;-73
2021/09/12 09:00:22;;;;;;;7.33;6.50;;;;;;;20.61;62.25;99645.81;5072823;28;20431;-74
2021/09/12 09:02:49;;;;;;;10.77;7.20;;;;;;;20.74;61.97;99647.34;5073039;28;20446;-73
2021/09/12 09:05:16;;;;;;;7.20;5.30;;;;;;;20.88;60.94;99645.97;5073386;28;20784;-73
2021/09/12 09:07:44;;;;;;;6.77;5.80;;;;;;;20.69;61.09;99639.63;5072906;28;20423;-74
2021/09/12 09:10:20;;;;;;;8.03;5.20;;;;;;;20.63;61.09;99644.84;5072603;28;20471;-74
2021/09/12 09:12:47;;;;;;;7.27;5.73;;;;;;;20.63;61.27;99647.56;5073127;28;20834;-73
2021/09/12 09:15:15;;;;;;;8.13;5.37;;;;;;;21.13;58.15;99650.69;5072711;28;20453;-74
2021/09/12 09:17:44;;;;;;;4.90;4.17;;;;;;;21.35;57.40;99648.50;5072634;28;20477;-73
2021/09/12 09:20:13;;;;;;;4.37;3.83;;;;;;;21.56;56.44;99642.72;5073231;28;20874;-73
2021/09/12 09:22:42;;;;;;;3.87;3.47;;;;;;;21.79;55.22;99641.16;5073100;28;20431;-74
2021/09/12 09:25:16;;;;;;;3.60;3.10;;;;;;;21.98;54.46;99640.13;5073124;28;20928;-73
2021/09/12 09:28:01;;;;;;;5.30;3.50;;;;;;;22.00;54.49;99629.84;5072857;28;20434;-73
2021/09/12 09:30:32;;;;;;;5.83;3.00;;;;;;;21.95;53.98;99632.19;5071506;28;20523;-73
2021/09/12 09:33:16;;;;;;;6.50;3.53;;;;;;;21.69;55.01;99623.13;5065114;28;20529;-73
2021/09/12 09:35:54;;;;;;;3.13;2.30;;;;;;;22.03;53.52;99623.19;5072792;28;20472;-73
2021/09/12 09:38:23;;;;;;;4.17;3.10;;;;;;;21.67;54.55;99623.28;5073266;28;20804;-73
2021/09/12 09:41:02;;;;;;;3.93;2.60;;;;;;;22.09;53.77;99628.00;5073016;28;20476;-73
2021/09/12 09:43:46;;;;;;;2.80;2.60;;;;;;;21.82;54.38;99621.69;5073095;28;20803;-73
2021/09/12 09:46:33;;;;;;;3.73;3.23;;;;;;;21.65;55.60;99622.56;5073307;28;20514;-73
2021/09/12 09:49:00;;;;;;;3.33;2.63;;;;;;;21.80;55.11;99620.13;5065123;28;20453;-73
2021/09/12 09:51:28;;;;;;;3.70;3.20;;;;;;;21.92;54.62;99617.97;5073069;28;20960;-73
2021/09/12 09:53:58;;;;;;;5.03;3.23;;;;;;;21.71;55.44;99621.06;5072683;28;20531;-73
2021/09/12 09:56:26;;;;;;;3.70;3.33;;;;;;;22.13;54.66;99615.69;5073230;28;20431;-73
2021/09/12 09:58:54;;;;;;;4.13;3.33;;;;;;;22.55;53.19;99614.88;5072586;28;20434;-73
2021/09/12 10:01:20;;;;;;;3.90;3.30;;;;;;;22.25;53.46;99619.91;5072943;28;20535;-73
2021/09/12 10:03:47;;;;;;;5.07;3.53;;;;;;;22.39;53.71;99607.44;5073024;28;20431;-73
2021/09/12 10:06:16;;;;;;;4.77;3.73;;;;;;;22.34;53.85;99607.09;5073075;28;20530;-73
2021/09/12 10:08:44;;;;;;;4.30;3.40;;;;;;;22.60;52.25;99604.25;5072922;28;20944;-74
2021/09/12 10:11:12;;;;;;;3.40;2.90;;;;;;;21.95;53.51;99604.78;5072834;28;20898;-73
2021/09/12 10:13:41;;;;;;;3.57;2.80;;;;;;;22.16;53.06;99600.78;5072995;28;20429;-73
2021/09/12 10:16:09;;;;;;;4.77;3.70;;;;;;;22.29;52.77;99593.00;5064771;28;20453;-73
2021/09/12 10:18:36;;;;;;;4.03;3.53;;;;;;;22.50;52.55;99595.31;5072645;28;20467;-73
2021/09/12 10:21:26;;;;;;;4.40;3.27;;;;;;;22.68;52.03;99596.06;5075371;28;20430;-73
2021/09/12 10:24:04;;;;;;;7.43;3.70;;;;;;;22.88;50.86;99582.03;5076663;28;20468;-72
2021/09/12 10:26:34;;;;;;;4.00;3.00;;;;;;;23.07;50.37;99590.00;5076321;28;20553;-74
2021/09/12 10:29:02;;;;;;;4.37;3.57;;;;;;;23.23;50.17;99588.28;5075357;28;20453;-74
2021/09/12 10:31:37;;;;;;;3.90;3.00;;;;;;;22.75;50.55;99593.50;5076557;28;20477;-73
2021/09/12 10:34:11;;;;;;;6.03;3.10;;;;;;;22.93;50.34;99590.63;5076579;28;20492;-73
2021/09/12 10:36:39;;;;;;;3.60;3.30;;;;;;;22.64;51.46;99597.41;5076642;28;20435;-73
2021/09/12 10:39:36;;;;;;;3.37;3.10;;;;;;;22.41;51.88;99593.56;5076188;28;20829;-73
2021/09/12 10:42:19;;;;;;;4.30;3.30;;;;;;;22.61;50.65;99595.03;5076175;28;20431;-73
2021/09/12 10:45:26;;;;;;;5.83;3.70;;;;;;;23.13;49.49;99602.16;5075879;28;20436;-73
2021/09/12 10:48:20;;;;;;;3.50;3.17;;;;;;;22.92;49.54;99588.03;5072976;28;20541;-74
2021/09/12 10:50:47;;;;;;;3.80;3.03;;;;;;;23.21;48.72;99588.44;5076259;28;20475;-74
2021/09/12 10:53:14;;;;;;;3.63;3.33;;;;;;;23.25;48.22;99580.75;5076029;28;20438;-73
2021/09/12 10:56:03;;;;;;;5.93;3.10;;;;;;;23.24;48.71;99584.50;5075085;28;20473;-73
2021/09/12 10:58:32;;;;;;;6.47;3.67;;;;;;;23.60;47.89;99586.91;5075908;28;20512;-73
2021/09/12 11:01:02;;;;;;;4.83;4.33;;;;;;;24.35;46.64;99576.41;5075874;28;20702;-74
2021/09/12 11:03:29;;;;;;;4.53;4.13;;;;;;;24.91;45.70;99573.53;5075819;28;20506;-73
2021/09/12 11:05:57;;;;;;;3.83;3.23;;;;;;;24.31;46.67;99568.69;5075112;28;20517;-73
2021/09/12 11:08:34;;;;;;;4.10;3.73;;;;;;;24.27;47.05;99575.59;5067749;28;20795;-73
2021/09/12 11:11:01;;;;;;;4.37;3.47;;;;;;;23.82;47.60;99575.22;5075849;28;20489;-73
2021/09/12 11:13:28;;;;;;;4.67;3.57;;;;;;;23.14;48.71;99570.09;5075751;28;20451;-73
2021/09/12 11:16:07;;;;;;;4.27;3.73;;;;;;;23.02;49.07;99572.28;5075400;28;20526;-72
2021/09/12 11:18:44;;;;;;;7.43;3.90;;;;;;;22.83;48.90;99563.31;5075819;28;20769;-73
2021/09/12 11:21:11;;;;;;;4.77;3.40;;;;;;;23.07;48.33;99562.53;5075292;28;20437;-72
2021/09/12 11:23:39;;;;;;;4.07;3.20;;;;;;;23.56;46.59;99563.53;5075335;28;20423;-73
2021/09/12 11:26:06;;;;;;;4.00;3.40;;;;;;;23.71;46.13;99559.03;5074909;28;20811;-73
2021/09/12 11:28:35;;;;;;;4.73;3.57;;;;;;;24.15;45.29;99558.63;5075338;28;20959;-72
2021/09/12 11:31:02;;;;;;;3.30;3.00;;;;;;;24.21;44.87;99557.88;5074148;28;20478;-74